Askale, Turkey
Current Conditions -  °F | °C
As of 9:50 PM on Friday 21 Nov 2014 (Local Time) from LTCE Reporting Station
Broken Clouds Broken Clouds  
Wind Chill: 33°   Ceiling: 8000
Heat Index: 37°   Visibility: 6mi
Dew Point: 32°   Wind: 6mph
Humidity: 81%   Direction: 350°N
Pressure: 29.94"   Gusts: NA
Location:  39.92°N, 40.7°E
Report Text: LTCE 211850Z 35005KT 330V060 9999 SCT030 BKN080 03/M00 Q1014 NOSIG
Loading
Personal Weather Stations






























Interactive Weather Map New forecast layout! Learn more

10-Day Weather Forecast

Advertisements
Track Severe Weather on mobile